Time;durP1;ratioP1;P1;durP2;ratioP2;P2;SDS_P1;SDS_P2;PMS_P1;PMS_P2;Temp;Humidity;BMP_temperature;BMP_pressure;BME280_temperature;BME280_humidity;BME280_pressure;Samples;Min_cycle;Max_cycle;Signal;HPM_P1;HPM_P2
2022/02/20 00:02:08;;;;;;;2.75;1.40;;;9.40;76.20;;;;;;4823183;29;20045;-80
2022/02/20 00:04:36;;;;;;;2.03;1.20;;;9.40;76.20;;;;;;4808341;29;20034;-79
2022/02/20 00:07:03;;;;;;;1.45;1.17;;;9.40;76.20;;;;;;4824899;29;20042;-80
2022/02/20 00:09:28;;;;;;;2.05;1.30;;;9.40;76.20;;;;;;4823316;29;20027;-80
2022/02/20 00:11:54;;;;;;;2.65;1.20;;;9.40;76.20;;;;;;4822885;29;20399;-79
2022/02/20 00:14:20;;;;;;;2.15;1.20;;;9.40;76.20;;;;;;4808216;29;20076;-80
2022/02/20 00:16:46;;;;;;;2.17;1.20;;;9.40;76.20;;;;;;4808451;29;20055;-80
2022/02/20 00:19:12;;;;;;;3.20;1.30;;;9.40;76.20;;;;;;4808110;29;20130;-80
2022/02/20 00:21:38;;;;;;;1.73;1.20;;;9.40;76.20;;;;;;4793098;29;20146;-81
2022/02/20 00:24:04;;;;;;;1.33;1.10;;;9.40;76.20;;;;;;4823513;29;20031;-81
2022/02/20 00:26:30;;;;;;;1.67;1.08;;;9.40;76.20;;;;;;4807670;29;20034;-81
2022/02/20 00:28:56;;;;;;;1.90;1.25;;;9.40;76.20;;;;;;4792789;29;20071;-81
2022/02/20 00:31:22;;;;;;;1.35;1.13;;;9.40;76.20;;;;;;4808284;29;20026;-80
2022/02/20 00:33:48;;;;;;;2.50;1.25;;;9.40;76.20;;;;;;4824533;29;20044;-80
2022/02/20 00:36:13;;;;;;;2.13;1.15;;;9.40;76.10;;;;;;4811450;29;20118;-79
2022/02/20 00:38:39;;;;;;;1.75;1.30;;;9.40;76.10;;;;;;4812132;29;20037;-80
2022/02/20 00:41:05;;;;;;;2.97;1.27;;;9.40;76.20;;;;;;4811438;29;20484;-81
2022/02/20 00:43:31;;;;;;;3.47;1.45;;;9.40;76.10;;;;;;4826890;29;20539;-80
2022/02/20 00:45:56;;;;;;;3.15;1.40;;;9.40;76.10;;;;;;4811490;29;20421;-80
2022/02/20 00:48:22;;;;;;;1.40;1.00;;;9.40;76.10;;;;;;4796937;29;20039;-81
2022/02/20 00:50:49;;;;;;;1.85;1.10;;;9.30;76.00;;;;;;4811502;29;20130;-81
2022/02/20 00:53:15;;;;;;;1.30;1.20;;;9.30;76.00;;;;;;4826312;29;20034;-81
2022/02/20 00:55:41;;;;;;;1.80;1.13;;;9.30;76.00;;;;;;4811750;29;20492;-80
2022/02/20 00:58:08;;;;;;;1.75;1.05;;;9.30;76.00;;;;;;4810833;29;20448;-81
2022/02/20 01:00:36;;;;;;;1.17;1.02;;;9.30;76.00;;;;;;4825687;29;20123;-81
2022/02/20 01:03:02;;;;;;;1.55;1.30;;;9.30;76.00;;;;;;4826118;29;20045;-81
2022/02/20 01:05:28;;;;;;;1.20;1.05;;;9.30;76.00;;;;;;4811071;29;20030;-80
2022/02/20 01:07:54;;;;;;;2.22;1.40;;;9.30;76.00;;;;;;4826037;29;20125;-81
2022/02/20 01:10:20;;;;;;;1.20;1.10;;;9.30;76.00;;;;;;4810845;29;20395;-82
2022/02/20 01:12:46;;;;;;;1.75;1.02;;;9.30;76.00;;;;;;4826929;29;20042;-80
2022/02/20 01:15:13;;;;;;;2.00;1.30;;;9.20;75.90;;;;;;4811363;29;20525;-81
2022/02/20 01:17:39;;;;;;;2.03;1.10;;;9.20;75.90;;;;;;4811410;29;20566;-80
2022/02/20 01:20:06;;;;;;;1.95;0.95;;;9.20;75.90;;;;;;4825573;29;20081;-81
2022/02/20 01:22:32;;;;;;;1.02;1.00;;;9.20;75.90;;;;;;4825930;29;20071;-81
2022/02/20 01:24:58;;;;;;;1.73;0.95;;;9.20;75.90;;;;;;4810942;29;20026;-82
2022/02/20 01:27:24;;;;;;;1.42;1.20;;;9.20;75.90;;;;;;4795554;29;20396;-81
2022/02/20 01:29:50;;;;;;;1.05;0.90;;;9.20;75.90;;;;;;4827078;29;20027;-80
2022/02/20 01:32:17;;;;;;;1.98;0.93;;;9.20;76.00;;;;;;4796178;29;20039;-80
2022/02/20 01:34:43;;;;;;;1.67;0.90;;;9.20;76.00;;;;;;4810774;29;20031;-80
2022/02/20 01:37:10;;;;;;;0.93;0.93;;;9.10;75.90;;;;;;4796224;29;20540;-81
2022/02/20 01:39:35;;;;;;;1.40;1.00;;;9.20;76.00;;;;;;4795591;29;20480;-80
2022/02/20 01:42:07;;;;;;;1.00;1.00;;;9.20;76.00;;;;;;4811471;29;20042;-80
2022/02/20 01:44:34;;;;;;;1.50;1.00;;;9.10;76.00;;;;;;4810339;29;20475;-81
2022/02/20 01:47:08;;;;;;;2.33;1.45;;;9.10;75.90;;;;;;4826500;29;20090;-80
2022/02/20 01:49:38;;;;;;;1.10;1.00;;;9.10;76.00;;;;;;4811838;29;20087;-82
2022/02/20 01:52:04;;;;;;;1.25;0.90;;;9.10;75.90;;;;;;4825637;29;20042;-81
2022/02/20 01:54:30;;;;;;;1.23;1.00;;;9.10;76.00;;;;;;4810287;29;20038;-81
2022/02/20 01:56:57;;;;;;;1.20;1.00;;;9.10;76.00;;;;;;4810972;29;20023;-79
2022/02/20 01:59:33;;;;;;;1.10;1.00;;;9.10;76.00;;;;;;4812214;29;20037;-81
2022/02/20 02:02:19;;;;;;;1.10;1.00;;;9.10;76.00;;;;;;4826740;29;20061;-82
2022/02/20 02:04:55;;;;;;;1.48;1.10;;;9.00;75.90;;;;;;4825454;29;20049;-81
2022/02/20 02:07:21;;;;;;;0.90;0.90;;;9.00;76.60;;;;;;4795351;29;20043;-81
2022/02/20 02:09:53;;;;;;;1.20;1.10;;;9.00;76.00;;;;;;4826291;29;20023;-81
2022/02/20 02:12:42;;;;;;;0.95;0.88;;;9.00;76.00;;;;;;4810812;29;20078;-80
2022/02/20 02:15:26;;;;;;;1.55;1.08;;;9.00;76.00;;;;;;4826193;29;20053;-81
2022/02/20 02:18:00;;;;;;;1.35;1.00;;;9.00;76.00;;;;;;4797132;29;20038;-80
2022/02/20 02:20:55;;;;;;;1.10;1.00;;;9.00;76.00;;;;;;4817142;29;20090;-80
2022/02/20 02:23:31;;;;;;;1.00;0.90;;;9.00;76.00;;;;;;4825031;29;20038;-81
2022/02/20 02:26:12;;;;;;;1.35;1.00;;;9.00;76.10;;;;;;4812363;29;20038;-81
2022/02/20 02:28:58;;;;;;;2.03;0.98;;;9.00;76.10;;;;;;4825232;29;20034;-80
2022/02/20 02:31:24;;;;;;;1.88;1.10;;;8.90;76.10;;;;;;4809915;29;20046;-82
2022/02/20 02:33:51;;;;;;;1.20;1.10;;;8.90;76.10;;;;;;4810609;29;20472;-80
2022/02/20 02:36:17;;;;;;;1.05;0.90;;;9.00;76.20;;;;;;4809509;29;20129;-81
2022/02/20 02:38:43;;;;;;;0.90;0.90;;;8.90;76.10;;;;;;4810135;29;20034;-80
2022/02/20 02:41:13;;;;;;;0.88;0.88;;;8.90;76.20;;;;;;4810155;29;20461;-81
2022/02/20 02:43:42;;;;;;;1.17;1.00;;;8.90;76.20;;;;;;4824909;29;20042;-80
2022/02/20 02:46:08;;;;;;;1.00;1.00;;;8.90;76.10;;;;;;4809379;29;20019;-80
2022/02/20 02:48:44;;;;;;;0.90;0.90;;;8.90;76.20;;;;;;4824447;29;20034;-79
2022/02/20 02:51:10;;;;;;;1.10;1.00;;;8.90;76.20;;;;;;4824231;29;20037;-81
2022/02/20 02:53:35;;;;;;;1.58;0.95;;;8.90;76.10;;;;;;4794392;29;20030;-80
2022/02/20 02:56:01;;;;;;;1.40;1.30;;;8.90;76.10;;;;;;4794278;29;20062;-82
2022/02/20 02:58:30;;;;;;;1.52;1.10;;;8.90;76.10;;;;;;4808654;29;20117;-81
2022/02/20 03:01:00;;;;;;;1.27;1.17;;;8.90;76.10;;;;;;4810014;29;20050;-80
2022/02/20 03:03:26;;;;;;;1.63;1.20;;;8.90;76.10;;;;;;4809746;29;20082;-82
2022/02/20 03:05:56;;;;;;;1.10;1.05;;;8.90;76.10;;;;;;4809143;29;20030;-81
2022/02/20 03:08:24;;;;;;;1.13;0.98;;;8.90;76.20;;;;;;4809333;29;20071;-79
2022/02/20 03:10:50;;;;;;;2.25;1.15;;;8.90;76.20;;;;;;4809875;29;20428;-81
2022/02/20 03:13:16;;;;;;;0.90;0.90;;;8.90;76.20;;;;;;4794663;29;20117;-81
2022/02/20 03:15:46;;;;;;;1.00;1.00;;;8.90;76.20;;;;;;4809678;29;20060;-80
2022/02/20 03:18:12;;;;;;;1.48;1.20;;;8.90;76.20;;;;;;4824495;29;20032;-81
2022/02/20 03:20:38;;;;;;;1.60;1.00;;;8.90;76.20;;;;;;4808755;29;20085;-81
2022/02/20 03:23:04;;;;;;;2.33;1.27;;;8.90;76.20;;;;;;4794177;29;20198;-80
2022/02/20 03:25:31;;;;;;;0.98;0.98;;;8.90;76.20;;;;;;4809741;29;20045;-80
2022/02/20 03:28:03;;;;;;;1.08;1.02;;;8.90;76.20;;;;;;4809804;29;20407;-82
2022/02/20 03:30:40;;;;;;;2.17;1.00;;;8.90;76.20;;;;;;4810442;29;20042;-81
2022/02/20 03:33:09;;;;;;;0.98;0.90;;;8.90;76.20;;;;;;4808960;29;20069;-81
2022/02/20 03:35:36;;;;;;;1.25;1.10;;;8.90;76.20;;;;;;4809151;29;20054;-80
2022/02/20 03:38:04;;;;;;;0.90;0.90;;;8.90;76.20;;;;;;4824465;29;20031;-79
2022/02/20 03:40:36;;;;;;;0.90;0.90;;;8.90;76.30;;;;;;4824279;29;20381;-80
2022/02/20 03:43:03;;;;;;;1.13;1.10;;;8.80;76.20;;;;;;4808090;29;20046;-80
2022/02/20 03:45:42;;;;;;;1.85;1.15;;;8.90;76.30;;;;;;4811009;29;20358;-80
2022/02/20 03:48:08;;;;;;;0.88;0.88;;;8.80;76.20;;;;;;4808490;29;20039;-80
2022/02/20 03:50:37;;;;;;;1.20;1.10;;;8.80;76.20;;;;;;4808961;29;20421;-81
2022/02/20 03:53:02;;;;;;;0.93;0.93;;;8.80;76.20;;;;;;4793487;29;20084;-81
2022/02/20 03:55:30;;;;;;;1.20;1.10;;;8.80;76.20;;;;;;4823370;29;20070;-81
2022/02/20 03:57:57;;;;;;;0.90;0.90;;;8.80;76.20;;;;;;4809231;29;20121;-81
2022/02/20 04:00:44;;;;;;;1.00;1.00;;;8.80;76.30;;;;;;4823872;29;20030;-80
2022/02/20 04:03:25;;;;;;;1.10;1.00;;;8.80;76.20;;;;;;4810138;29;20074;-79
2022/02/20 04:05:53;;;;;;;0.80;0.80;;;8.80;76.30;;;;;;4808166;29;20045;-81
2022/02/20 04:08:21;;;;;;;1.00;1.00;;;8.80;76.30;;;;;;4807983;29;20030;-80
2022/02/20 04:10:50;;;;;;;1.15;0.90;;;8.80;76.30;;;;;;4808796;29;20480;-80
2022/02/20 04:13:37;;;;;;;1.50;1.00;;;8.80;76.30;;;;;;4797836;29;20091;-80
2022/02/20 04:16:06;;;;;;;1.10;1.00;;;8.80;76.30;;;;;;4808769;29;20035;-80
2022/02/20 04:18:36;;;;;;;1.48;1.00;;;8.80;76.30;;;;;;4794728;29;20174;-80
2022/02/20 04:21:11;;;;;;;1.02;0.90;;;8.80;76.30;;;;;;4812723;29;20151;-80
2022/02/20 04:23:36;;;;;;;1.00;1.00;;;8.80;76.30;;;;;;4796539;29;20045;-81
2022/02/20 04:26:04;;;;;;;1.00;1.00;;;8.80;76.40;;;;;;4812284;29;20451;-81
2022/02/20 04:28:32;;;;;;;0.90;0.90;;;8.80;76.40;;;;;;4826445;29;20086;-81
2022/02/20 04:30:59;;;;;;;0.90;0.90;;;8.70;76.30;;;;;;4812032;29;20041;-79
2022/02/20 04:33:26;;;;;;;0.90;0.90;;;8.80;76.30;;;;;;4811571;29;20037;-80
2022/02/20 04:35:55;;;;;;;1.10;1.05;;;8.80;76.40;;;;;;4811810;29;20527;-79
2022/02/20 04:38:22;;;;;;;1.08;1.00;;;8.70;76.30;;;;;;4811211;29;20048;-79
2022/02/20 04:40:48;;;;;;;0.95;0.95;;;8.70;76.30;;;;;;4811028;29;20041;-80
2022/02/20 04:43:18;;;;;;;1.38;1.00;;;8.70;76.30;;;;;;4812352;29;20090;-80
2022/02/20 04:45:46;;;;;;;0.93;0.90;;;8.70;76.30;;;;;;4811420;29;20034;-79
2022/02/20 04:48:16;;;;;;;1.13;1.00;;;8.70;76.30;;;;;;4811398;29;20044;-79
2022/02/20 04:50:43;;;;;;;1.00;1.00;;;8.70;76.30;;;;;;4796382;29;20488;-79
2022/02/20 04:53:15;;;;;;;1.00;1.00;;;8.70;76.30;;;;;;4811845;29;20468;-80
2022/02/20 04:55:45;;;;;;;1.58;1.02;;;8.70;76.40;;;;;;4811668;29;20034;-79
2022/02/20 04:58:11;;;;;;;0.90;0.90;;;8.70;76.30;;;;;;4826178;29;20102;-80
2022/02/20 05:00:38;;;;;;;1.08;1.00;;;8.70;76.40;;;;;;4811411;29;20037;-80
2022/02/20 05:03:13;;;;;;;1.50;1.00;;;8.70;76.40;;;;;;4813834;29;20038;-79
2022/02/20 05:06:05;;;;;;;1.60;1.20;;;8.70;76.40;;;;;;4815287;29;20415;-80
2022/02/20 05:08:41;;;;;;;1.27;1.10;;;8.70;76.30;;;;;;4812669;29;20042;-79
2022/02/20 05:11:12;;;;;;;1.63;1.23;;;8.70;76.40;;;;;;4826212;29;20038;-80
2022/02/20 05:13:38;;;;;;;1.30;1.20;;;8.70;76.40;;;;;;4810975;29;20038;-82
2022/02/20 05:16:04;;;;;;;1.23;1.00;;;8.70;76.40;;;;;;4811282;29;20034;-81
2022/02/20 05:18:30;;;;;;;1.20;1.10;;;8.70;76.40;;;;;;4826452;29;20089;-80
2022/02/20 05:20:57;;;;;;;1.92;1.20;;;8.70;76.40;;;;;;4812556;29;20057;-81
2022/02/20 05:23:24;;;;;;;1.23;1.10;;;8.70;76.50;;;;;;4829093;29;20052;-81
2022/02/20 05:25:50;;;;;;;1.20;1.10;;;8.60;76.40;;;;;;4829453;29;20034;-81
2022/02/20 05:28:17;;;;;;;2.30;1.40;;;8.60;76.40;;;;;;4814259;29;20044;-84
2022/02/20 05:30:44;;;;;;;1.88;1.35;;;8.60;76.40;;;;;;4814604;29;20030;-82
2022/02/20 05:33:21;;;;;;;1.20;1.10;;;8.60;76.40;;;;;;4815832;29;20136;-83
2022/02/20 05:35:49;;;;;;;1.40;1.27;;;8.60;76.40;;;;;;4815112;29;20064;-83
2022/02/20 05:38:19;;;;;;;1.73;1.42;;;8.60;76.40;;;;;;4829583;29;20083;-82
2022/02/20 05:40:45;;;;;;;1.92;1.40;;;8.60;76.40;;;;;;4814472;29;20054;-82
2022/02/20 05:43:13;;;;;;;2.67;1.50;;;8.60;76.40;;;;;;4814225;29;20048;-82
2022/02/20 05:45:39;;;;;;;2.63;1.60;;;8.60;76.50;;;;;;4814066;29;20034;-83
2022/02/20 05:48:17;;;;;;;2.22;1.60;;;8.60;76.50;;;;;;4816277;29;20102;-83
2022/02/20 05:51:06;;;;;;;2.13;1.70;;;8.60;76.50;;;;;;4819924;29;20054;-81
2022/02/20 05:53:36;;;;;;;2.15;1.80;;;8.60;76.40;;;;;;4815325;29;20037;-82
2022/02/20 05:56:03;;;;;;;1.50;1.40;;;8.60;76.50;;;;;;4813732;29;20062;-82
2022/02/20 05:58:41;;;;;;;3.35;1.90;;;8.60;76.50;;;;;;4829754;29;20030;-84
2022/02/20 06:01:07;;;;;;;2.13;1.65;;;8.60;76.50;;;;;;4799070;29;20121;-82
2022/02/20 06:03:35;;;;;;;2.47;2.00;;;8.60;76.50;;;;;;4813934;29;20037;-81
2022/02/20 06:06:27;;;;;;;2.42;1.73;;;8.60;76.50;;;;;;4828999;29;20518;-82
2022/02/20 06:09:03;;;;;;;3.47;2.13;;;8.60;76.50;;;;;;4802330;29;20069;-82
2022/02/20 06:11:50;;;;;;;2.10;1.55;;;8.60;76.50;;;;;;4830656;29;20098;-82
2022/02/20 06:14:54;;;;;;;4.50;2.35;;;8.60;76.60;;;;;;4735628;30;20415;-83
2022/02/20 06:17:44;;;;;;;3.38;2.00;;;8.60;76.50;;;;;;4723825;30;20099;-82
2022/02/20 06:20:28;;;;;;;3.55;1.90;;;8.60;76.60;;;;;;4796349;29;20064;-82
2022/02/20 06:22:57;;;;;;;2.60;1.85;;;8.60;76.60;;;;;;4829146;29;20044;-82
2022/02/20 06:25:47;;;;;;;4.07;2.10;;;8.60;76.60;;;;;;4809306;29;20395;-82
2022/02/20 06:28:16;;;;;;;2.50;1.83;;;8.60;76.70;;;;;;4828485;29;20079;-82
2022/02/20 06:30:42;;;;;;;3.15;2.40;;;8.60;76.70;;;;;;4813604;29;20033;-81
2022/02/20 06:33:11;;;;;;;3.72;2.10;;;8.60;76.70;;;;;;4828361;29;20034;-82
2022/02/20 06:35:37;;;;;;;3.63;2.00;;;8.60;76.70;;;;;;4813174;29;20049;-82
2022/02/20 06:38:05;;;;;;;3.10;2.13;;;8.60;76.70;;;;;;4813646;29;20125;-81
2022/02/20 06:40:32;;;;;;;2.42;1.95;;;8.60;76.70;;;;;;4813667;29;20042;-82
2022/02/20 06:43:00;;;;;;;2.95;2.20;;;8.60;76.70;;;;;;4814122;29;20472;-82
2022/02/20 06:45:28;;;;;;;3.33;2.33;;;8.60;76.70;;;;;;4813257;29;20045;-81
2022/02/20 06:48:20;;;;;;;2.08;1.80;;;8.60;76.70;;;;;;4816246;29;20021;-81
2022/02/20 06:51:03;;;;;;;3.20;1.90;;;8.60;76.70;;;;;;4828476;29;20034;-81
2022/02/20 06:54:03;;;;;;;2.88;1.95;;;8.60;76.70;;;;;;4817546;29;20038;-83
2022/02/20 06:56:58;;;;;;;4.20;2.33;;;8.60;76.70;;;;;;4823945;29;20050;-82
2022/02/20 06:59:24;;;;;;;2.78;1.95;;;8.60;76.70;;;;;;4813398;29;20090;-81
2022/02/20 07:01:50;;;;;;;3.45;2.60;;;8.60;76.80;;;;;;4827799;29;20030;-81
2022/02/20 07:04:17;;;;;;;5.32;2.30;;;8.60;76.80;;;;;;4828500;29;20057;-82
2022/02/20 07:06:43;;;;;;;2.65;2.03;;;8.60;76.80;;;;;;4812683;29;20124;-84
2022/02/20 07:09:10;;;;;;;3.92;2.42;;;8.60;76.90;;;;;;4812886;29;20042;-82
2022/02/20 07:11:40;;;;;;;3.83;2.22;;;8.60;76.80;;;;;;4828149;29;20129;-83
2022/02/20 07:14:06;;;;;;;3.42;2.28;;;8.60;76.90;;;;;;4797436;29;20026;-82
2022/02/20 07:16:32;;;;;;;3.35;2.00;;;8.60;76.80;;;;;;4827927;29;20030;-82
2022/02/20 07:18:59;;;;;;;3.38;1.98;;;8.60;76.90;;;;;;4827734;29;20049;-83
2022/02/20 07:21:26;;;;;;;4.25;2.30;;;8.60;76.90;;;;;;4812568;29;20038;-82
2022/02/20 07:23:52;;;;;;;3.03;2.05;;;8.60;76.90;;;;;;4812564;29;20053;-81
2022/02/20 07:26:18;;;;;;;3.58;2.17;;;8.60;76.90;;;;;;4812045;29;20490;-82
2022/02/20 07:28:44;;;;;;;2.80;1.95;;;8.60;77.00;;;;;;4811852;29;20033;-81
2022/02/20 07:31:10;;;;;;;3.78;2.22;;;8.70;77.00;;;;;;4812216;29;20109;-80
2022/02/20 07:33:35;;;;;;;2.67;1.70;;;8.70;77.00;;;;;;4827017;29;20518;-81
2022/02/20 07:36:01;;;;;;;3.67;1.92;;;8.70;77.00;;;;;;4827040;29;20045;-81
2022/02/20 07:38:27;;;;;;;3.15;2.30;;;8.70;77.00;;;;;;4827443;29;20055;-81
2022/02/20 07:40:53;;;;;;;3.45;2.00;;;8.70;77.00;;;;;;4811806;29;20026;-81
2022/02/20 07:43:19;;;;;;;3.40;1.52;;;8.70;77.00;;;;;;4811247;29;20046;-81
2022/02/20 07:45:47;;;;;;;3.40;1.88;;;8.70;77.00;;;;;;4812338;29;20034;-81
2022/02/20 07:48:14;;;;;;;2.72;2.00;;;8.70;77.00;;;;;;4782127;29;20094;-82
2022/02/20 07:50:42;;;;;;;2.80;2.00;;;8.70;77.10;;;;;;4811825;29;20387;-82
2022/02/20 07:53:08;;;;;;;2.40;1.73;;;8.70;77.10;;;;;;4811922;29;20042;-81
2022/02/20 07:55:34;;;;;;;2.00;1.80;;;8.80;77.20;;;;;;4812394;29;20376;-81
2022/02/20 07:58:12;;;;;;;2.25;1.58;;;8.70;77.10;;;;;;4826529;29;20080;-79
2022/02/20 08:00:38;;;;;;;1.92;1.60;;;8.80;77.20;;;;;;4827089;29;20049;-79
2022/02/20 08:03:04;;;;;;;2.50;1.60;;;8.80;77.20;;;;;;4811503;29;20045;-79
2022/02/20 08:05:30;;;;;;;2.30;1.50;;;8.80;77.20;;;;;;4812082;29;20451;-80
2022/02/20 08:07:56;;;;;;;2.60;1.65;;;8.80;77.20;;;;;;4811477;29;20520;-80
2022/02/20 08:10:23;;;;;;;2.83;1.70;;;8.80;77.20;;;;;;4812270;29;20166;-80
2022/02/20 08:12:48;;;;;;;3.60;1.70;;;8.80;77.20;;;;;;4811767;29;20061;-82
2022/02/20 08:15:14;;;;;;;3.20;1.80;;;8.90;77.20;;;;;;4826199;29;20491;-80
2022/02/20 08:17:45;;;;;;;2.67;1.70;;;8.90;77.20;;;;;;4812108;29;20468;-81
2022/02/20 08:20:12;;;;;;;2.58;1.73;;;8.90;77.30;;;;;;4812078;29;20058;-81
2022/02/20 08:22:38;;;;;;;3.08;1.60;;;8.90;77.30;;;;;;4843318;29;20186;-81
2022/02/20 08:25:04;;;;;;;2.45;1.50;;;8.90;77.30;;;;;;4827233;29;20525;-82
2022/02/20 08:27:34;;;;;;;1.55;1.40;;;8.90;77.30;;;;;;4827475;29;20033;-81
2022/02/20 08:30:00;;;;;;;2.50;1.75;;;9.00;77.40;;;;;;4811512;29;20120;-81
2022/02/20 08:32:26;;;;;;;2.53;1.58;;;9.00;77.30;;;;;;4842767;29;20041;-81
2022/02/20 08:34:52;;;;;;;2.92;1.70;;;9.00;77.30;;;;;;4811640;29;20033;-81
2022/02/20 08:37:17;;;;;;;2.63;1.48;;;9.00;77.40;;;;;;4843098;29;20056;-81
2022/02/20 08:39:43;;;;;;;1.30;1.20;;;9.00;77.40;;;;;;4826292;29;20395;-83
2022/02/20 08:42:09;;;;;;;1.65;1.40;;;9.00;77.40;;;;;;4811321;29;20092;-78
2022/02/20 08:44:36;;;;;;;1.50;1.40;;;9.00;77.40;;;;;;4781254;29;20038;-81
2022/02/20 08:47:03;;;;;;;2.05;1.50;;;9.10;77.50;;;;;;4827347;29;20050;-79
2022/02/20 08:49:29;;;;;;;1.73;1.30;;;9.10;77.50;;;;;;4811434;29;20448;-81
2022/02/20 08:51:55;;;;;;;1.55;1.45;;;9.10;77.50;;;;;;4811436;29;20371;-79
2022/02/20 08:54:21;;;;;;;2.15;1.33;;;9.20;77.50;;;;;;4826405;29;20072;-81
2022/02/20 08:56:47;;;;;;;2.20;1.58;;;9.20;77.50;;;;;;4829078;29;20061;-81
2022/02/20 08:59:13;;;;;;;1.73;1.58;;;9.20;77.50;;;;;;4814851;29;20136;-82
2022/02/20 09:01:38;;;;;;;2.05;1.50;;;9.20;77.50;;;;;;4785349;29;20030;-80
2022/02/20 09:04:04;;;;;;;2.35;1.55;;;9.30;77.60;;;;;;4814679;29;20505;-81
2022/02/20 09:06:33;;;;;;;1.58;1.48;;;9.30;77.50;;;;;;4814930;29;20041;-81
2022/02/20 09:09:00;;;;;;;1.58;1.45;;;9.30;77.50;;;;;;4845562;29;20030;-79
2022/02/20 09:11:28;;;;;;;2.20;1.58;;;9.30;77.50;;;;;;4829377;29;20030;-79
2022/02/20 09:13:55;;;;;;;1.73;1.50;;;9.40;77.50;;;;;;4829566;29;20033;-81
2022/02/20 09:16:21;;;;;;;2.70;1.70;;;9.40;77.50;;;;;;4814185;29;20068;-81
2022/02/20 09:18:47;;;;;;;2.03;1.83;;;9.40;77.50;;;;;;4828809;29;20041;-79
2022/02/20 09:21:13;;;;;;;2.78;1.80;;;9.50;77.50;;;;;;4798874;29;20113;-80
2022/02/20 09:23:39;;;;;;;2.83;1.85;;;9.50;77.50;;;;;;4814146;29;20423;-79
2022/02/20 09:26:06;;;;;;;2.90;1.70;;;9.50;77.50;;;;;;4814386;29;20082;-82
2022/02/20 09:28:32;;;;;;;3.50;2.05;;;9.50;77.50;;;;;;4814732;29;20050;-81
2022/02/20 09:30:58;;;;;;;3.17;1.90;;;9.50;77.50;;;;;;4828977;29;20040;-81
2022/02/20 09:33:23;;;;;;;3.35;1.85;;;9.60;77.50;;;;;;4798833;29;20437;-80
2022/02/20 09:35:49;;;;;;;3.25;2.00;;;9.60;77.50;;;;;;4813986;29;20086;-80
2022/02/20 09:38:16;;;;;;;2.97;1.88;;;9.70;77.50;;;;;;4828772;29;20034;-79
2022/02/20 09:40:43;;;;;;;3.22;2.30;;;9.70;77.50;;;;;;4814116;29;20121;-80
2022/02/20 09:43:13;;;;;;;4.50;2.40;;;9.70;77.50;;;;;;4844944;29;20487;-79
2022/02/20 09:45:39;;;;;;;4.60;2.67;;;9.70;77.50;;;;;;4828740;29;20078;-80
2022/02/20 09:48:05;;;;;;;3.17;2.30;;;9.70;78.10;;;;;;4828407;29;20112;-77
2022/02/20 09:50:31;;;;;;;3.65;2.17;;;9.80;77.50;;;;;;4813561;29;20502;-78
2022/02/20 09:52:57;;;;;;;6.40;2.92;;;9.80;77.50;;;;;;4828418;29;20420;-80
2022/02/20 09:55:22;;;;;;;5.10;2.88;;;9.80;77.50;;;;;;4813351;29;20186;-79
2022/02/20 09:57:48;;;;;;;3.38;2.20;;;9.90;77.50;;;;;;4813375;29;20026;-79
2022/02/20 10:00:15;;;;;;;4.80;2.63;;;9.90;77.50;;;;;;4813320;29;20125;-79
2022/02/20 10:02:42;;;;;;;5.72;2.30;;;9.90;77.50;;;;;;4783392;29;20110;-79
2022/02/20 10:05:20;;;;;;;4.15;2.53;;;10.00;78.10;;;;;;4813318;29;20045;-79
2022/02/20 10:07:47;;;;;;;5.20;2.60;;;10.00;77.60;;;;;;4827812;29;20509;-79
2022/02/20 10:10:17;;;;;;;5.22;2.67;;;10.10;77.50;;;;;;4812889;29;20033;-78
2022/02/20 10:12:45;;;;;;;4.30;2.35;;;10.10;77.50;;;;;;4827877;29;20045;-79
2022/02/20 10:15:25;;;;;;;3.40;2.40;;;10.10;77.50;;;;;;4813748;29;20052;-79
2022/02/20 10:17:56;;;;;;;4.45;2.97;;;10.10;77.60;;;;;;4828048;29;20038;-79
2022/02/20 10:20:41;;;;;;;5.93;3.05;;;10.20;77.50;;;;;;4830908;29;20134;-78
2022/02/20 10:23:38;;;;;;;6.03;2.70;;;10.20;77.40;;;;;;4800654;29;20046;-78
2022/02/20 10:26:33;;;;;;;4.90;3.05;;;10.20;77.50;;;;;;4810220;29;20042;-78
2022/02/20 10:29:21;;;;;;;5.30;2.53;;;10.30;77.50;;;;;;4818720;29;20084;-80
2022/02/20 10:32:00;;;;;;;6.53;2.83;;;10.30;77.50;;;;;;4813967;29;20042;-81
2022/02/20 10:34:28;;;;;;;6.47;2.88;;;10.30;77.60;;;;;;4799114;29;20464;-78
2022/02/20 10:36:59;;;;;;;7.10;3.03;;;10.40;77.60;;;;;;4827793;29;20018;-79
2022/02/20 10:39:26;;;;;;;6.35;3.60;;;10.40;77.60;;;;;;4828404;29;20026;-79
2022/02/20 10:41:54;;;;;;;7.03;3.08;;;10.40;77.50;;;;;;4844827;29;20034;-80
2022/02/20 10:44:20;;;;;;;4.88;2.70;;;10.40;77.50;;;;;;4813219;29;20042;-81
2022/02/20 10:46:46;;;;;;;4.88;2.80;;;10.50;77.50;;;;;;4797645;29;20030;-80
2022/02/20 10:49:26;;;;;;;5.75;2.80;;;10.50;77.50;;;;;;4827754;29;20038;-81
2022/02/20 10:51:53;;;;;;;7.28;3.00;;;10.60;77.70;;;;;;4827954;29;20048;-81
2022/02/20 10:54:19;;;;;;;5.55;2.75;;;10.60;77.50;;;;;;4828185;29;20030;-80
2022/02/20 10:56:46;;;;;;;5.22;2.70;;;10.60;77.50;;;;;;4827361;29;20037;-82
2022/02/20 10:59:12;;;;;;;5.85;3.17;;;10.60;77.50;;;;;;4827882;29;20174;-82
2022/02/20 11:01:38;;;;;;;6.57;2.90;;;10.70;77.50;;;;;;4827791;29;20428;-82
2022/02/20 11:04:11;;;;;;;6.82;2.85;;;10.70;77.50;;;;;;4812486;29;20038;-81
2022/02/20 11:06:38;;;;;;;4.78;2.58;;;10.70;77.60;;;;;;4827679;29;20041;-82
2022/02/20 11:09:04;;;;;;;6.40;2.88;;;10.80;77.60;;;;;;4813105;29;20026;-82
2022/02/20 11:11:41;;;;;;;6.25;2.80;;;10.80;77.50;;;;;;4844186;29;20033;-81
2022/02/20 11:14:12;;;;;;;5.38;2.75;;;10.80;77.50;;;;;;4827637;29;20105;-80
2022/02/20 11:16:46;;;;;;;8.05;2.70;;;10.80;77.50;;;;;;4812042;29;20090;-79
2022/02/20 11:19:32;;;;;;;5.63;2.92;;;10.80;77.50;;;;;;4826459;29;20058;-80
2022/02/20 11:22:00;;;;;;;6.78;2.67;;;10.90;77.50;;;;;;4827088;29;20504;-79
2022/02/20 11:24:28;;;;;;;7.07;3.08;;;10.90;77.40;;;;;;4782300;29;20510;-79
2022/02/20 11:26:54;;;;;;;5.68;2.80;;;10.90;77.40;;;;;;4812009;29;20440;-79
2022/02/20 11:29:21;;;;;;;6.68;3.30;;;11.00;77.50;;;;;;4797916;29;20090;-79
2022/02/20 11:31:47;;;;;;;3.90;2.45;;;11.00;77.40;;;;;;4843289;29;20544;-81
2022/02/20 11:34:14;;;;;;;5.72;2.63;;;11.00;77.40;;;;;;4827591;29;20034;-80
2022/02/20 11:36:55;;;;;;;6.95;2.60;;;11.00;77.40;;;;;;4812131;29;20040;-79
2022/02/20 11:39:21;;;;;;;7.30;2.67;;;11.10;77.50;;;;;;4826955;29;20044;-80
2022/02/20 11:42:11;;;;;;;4.63;2.88;;;11.10;77.30;;;;;;4827222;29;20046;-79
2022/02/20 11:45:06;;;;;;;6.18;2.50;;;11.10;77.50;;;;;;4826965;29;20144;-80
2022/02/20 11:47:35;;;;;;;5.72;2.50;;;11.10;77.50;;;;;;4824633;29;20053;-80
2022/02/20 11:50:18;;;;;;;6.38;2.53;;;11.20;77.40;;;;;;4830006;29;20040;-79
2022/02/20 11:52:53;;;;;;;6.28;2.25;;;11.20;77.50;;;;;;4827573;29;20501;-80
2022/02/20 11:55:23;;;;;;;7.20;2.80;;;11.20;77.30;;;;;;4843525;29;20375;-80
2022/02/20 11:57:50;;;;;;;7.13;2.83;;;11.20;77.30;;;;;;4814710;29;20082;-78
2022/02/20 12:00:23;;;;;;;6.45;2.38;;;11.30;77.30;;;;;;4844183;29;20049;-78
2022/02/20 12:03:17;;;;;;;8.98;2.88;;;11.30;77.40;;;;;;4811217;29;20121;-78
2022/02/20 12:06:17;;;;;;;6.55;2.60;;;11.30;77.50;;;;;;4811341;29;20094;-80
2022/02/20 12:08:46;;;;;;;4.72;2.40;;;11.40;77.50;;;;;;4811112;29;20037;-78
2022/02/20 12:11:19;;;;;;;7.38;2.55;;;11.40;77.30;;;;;;4811722;29;20030;-81
2022/02/20 12:13:49;;;;;;;4.75;2.03;;;11.40;77.30;;;;;;4812287;29;20480;-82
2022/02/20 12:16:21;;;;;;;7.38;2.60;;;11.40;77.30;;;;;;4827429;29;20117;-83
2022/02/20 12:19:04;;;;;;;7.10;2.40;;;11.40;77.30;;;;;;4843007;29;20042;-81
2022/02/20 12:21:31;;;;;;;5.00;2.17;;;11.40;77.40;;;;;;4812038;29;20042;-82
2022/02/20 12:24:12;;;;;;;7.60;2.00;;;11.50;77.30;;;;;;4811317;29;20129;-79
2022/02/20 12:26:43;;;;;;;7.63;2.72;;;11.50;77.40;;;;;;4826817;29;20064;-80
2022/02/20 12:29:13;;;;;;;4.82;2.10;;;11.50;77.30;;;;;;4827519;29;20044;-85
2022/02/20 12:32:27;;;;;;;4.07;2.10;;;11.60;77.30;;;;;;4833787;29;20086;-84
2022/02/20 12:34:56;;;;;;;4.43;1.90;;;11.50;77.50;;;;;;4725849;30;20040;-79
2022/02/20 12:37:27;;;;;;;5.63;2.20;;;11.60;77.30;;;;;;4738996;30;20509;-80
2022/02/20 12:39:58;;;;;;;6.75;2.33;;;11.60;77.30;;;;;;4792925;29;20102;-81
2022/02/20 12:42:25;;;;;;;5.20;2.10;;;11.60;77.30;;;;;;4829550;29;20042;-81
2022/02/20 12:44:51;;;;;;;5.90;2.30;;;11.60;77.30;;;;;;4814409;29;20061;-81
2022/02/20 12:47:18;;;;;;;7.78;2.30;;;11.70;77.40;;;;;;4829061;29;20479;-81
2022/02/20 12:49:53;;;;;;;5.78;2.20;;;11.70;77.40;;;;;;4829399;29;20022;-82
2022/02/20 12:52:20;;;;;;;5.90;2.53;;;11.70;77.40;;;;;;4829917;29;20050;-81
2022/02/20 12:54:47;;;;;;;6.03;2.25;;;11.70;77.30;;;;;;4845598;29;20070;-81
2022/02/20 12:57:12;;;;;;;6.55;2.53;;;11.70;77.30;;;;;;4829352;29;20060;-82
2022/02/20 12:59:56;;;;;;;5.90;2.17;;;11.80;77.30;;;;;;4829406;29;20502;-80
2022/02/20 13:02:38;;;;;;;4.57;2.08;;;11.80;77.40;;;;;;4814242;29;20129;-81
2022/02/20 13:05:12;;;;;;;5.38;2.55;;;11.80;77.40;;;;;;4828727;29;20077;-80
2022/02/20 13:07:58;;;;;;;5.30;2.03;;;11.80;77.30;;;;;;4814616;29;20038;-82
2022/02/20 13:10:30;;;;;;;4.05;2.05;;;11.80;77.40;;;;;;4814059;29;20069;-80
2022/02/20 13:13:14;;;;;;;6.05;2.22;;;11.80;77.30;;;;;;4828787;29;20352;-81